createdAt,value
2023-05-10T00:00:56.186Z,99920.75
2023-05-10T00:03:26.978Z,99915.09
2023-05-10T00:05:57.871Z,99909.78
2023-05-10T00:08:26.177Z,99923.53
2023-05-10T00:10:54.808Z,99916.94
2023-05-10T00:13:23.374Z,99920.44
2023-05-10T00:15:58.490Z,99916.09
2023-05-10T00:18:26.905Z,99918.53
2023-05-10T00:21:15.149Z,99911.13
2023-05-10T00:23:43.407Z,99916.28
2023-05-10T00:26:11.713Z,99916.75
2023-05-10T00:28:39.992Z,99919.34
2023-05-10T00:31:09.755Z,99920.31
2023-05-10T00:33:38.360Z,99915.34
2023-05-10T00:36:08.409Z,99916.00
2023-05-10T00:38:36.767Z,99920.16
2023-05-10T00:41:05.506Z,99915.84
2023-05-10T00:43:33.769Z,99915.69
2023-05-10T00:46:02.475Z,99917.47
2023-05-10T00:48:32.215Z,99919.41
2023-05-10T00:51:00.490Z,99924.09
2023-05-10T00:53:29.017Z,99916.53
2023-05-10T00:55:57.537Z,99928.75
2023-05-10T00:58:28.977Z,99920.06
2023-05-10T01:00:58.181Z,99917.31
2023-05-10T01:03:26.969Z,99917.47
2023-05-10T01:05:57.038Z,99912.78
2023-05-10T01:08:25.649Z,99917.28
2023-05-10T01:10:54.121Z,99918.28
2023-05-10T01:13:32.621Z,99913.25
2023-05-10T01:16:02.977Z,99919.91
2023-05-10T01:18:32.071Z,99921.84
2023-05-10T01:21:08.303Z,99920.41
2023-05-10T01:23:57.896Z,99924.13
2023-05-10T01:26:35.607Z,99929.31
2023-05-10T01:29:13.604Z,99928.97
2023-05-10T01:32:06.135Z,99923.16
2023-05-10T01:34:37.253Z,99935.25
2023-05-10T01:37:08.580Z,99929.66
2023-05-10T01:39:42.941Z,99940.41
2023-05-10T01:42:12.510Z,99944.34
2023-05-10T01:44:42.213Z,99946.91
2023-05-10T01:47:12.620Z,99947.56
2023-05-10T01:49:44.114Z,99946.28
2023-05-10T01:52:14.042Z,99945.31
2023-05-10T01:54:45.143Z,99949.66
2023-05-10T01:57:15.464Z,99949.53
2023-05-10T01:59:45.123Z,99956.63
2023-05-10T02:02:14.188Z,99958.25
2023-05-10T02:04:44.124Z,99950.16
2023-05-10T02:07:14.114Z,99949.53
2023-05-10T02:09:44.562Z,99955.47
2023-05-10T02:12:16.503Z,99954.66
2023-05-10T02:14:45.361Z,99959.00
2023-05-10T02:17:16.435Z,99969.00
2023-05-10T02:19:52.573Z,99961.72
2023-05-10T02:22:23.034Z,99969.63
2023-05-10T02:24:52.022Z,99967.06
2023-05-10T02:27:22.834Z,99961.44
2023-05-10T02:29:55.080Z,99966.56
2023-05-10T02:32:24.383Z,99973.34
2023-05-10T02:34:55.082Z,99969.97
2023-05-10T02:37:23.863Z,99973.84
2023-05-10T02:39:54.386Z,99966.75
2023-05-10T02:42:25.828Z,99970.59
2023-05-10T02:44:55.596Z,99976.56
2023-05-10T02:47:26.819Z,99969.63
2023-05-10T02:49:58.368Z,99966.75
2023-05-10T02:52:29.602Z,99976.72
2023-05-10T02:55:10.611Z,99972.69
2023-05-10T02:57:50.150Z,99976.09
2023-05-10T03:00:20.090Z,99973.97
2023-05-10T03:02:48.446Z,99974.66
2023-05-10T03:05:18.229Z,99977.22
2023-05-10T03:07:55.717Z,99975.59
2023-05-10T03:10:45.160Z,99975.44
2023-05-10T03:13:18.399Z,99976.72
2023-05-10T03:15:51.041Z,99972.22
2023-05-10T03:18:23.120Z,99981.06
2023-05-10T03:20:58.729Z,99978.00
2023-05-10T03:23:29.026Z,99980.25
2023-05-10T03:25:57.496Z,99985.13
2023-05-10T03:28:27.030Z,99981.41
2023-05-10T03:30:55.572Z,99989.94
2023-05-10T03:33:23.888Z,99995.91
2023-05-10T03:35:54.118Z,99995.75
2023-05-10T03:38:22.361Z,99995.91
2023-05-10T03:40:50.655Z,100003.16
2023-05-10T03:43:18.888Z,100002.69
2023-05-10T03:45:47.822Z,99995.28
2023-05-10T03:48:48.328Z,100002.03
2023-05-10T03:51:18.356Z,99999.63
2023-05-10T03:53:46.689Z,100000.44
2023-05-10T03:56:15.003Z,100006.09
2023-05-10T03:58:45.644Z,100005.09
2023-05-10T04:01:16.291Z,100007.50
2023-05-10T04:03:44.678Z,100002.69
2023-05-10T04:06:22.329Z,100010.91
2023-05-10T04:08:50.699Z,100002.25
2023-05-10T04:11:19.369Z,100012.72
2023-05-10T04:13:47.570Z,100007.25
2023-05-10T04:16:18.428Z,100006.59
2023-05-10T04:18:47.009Z,100002.41
2023-05-10T04:21:15.625Z,100009.03
2023-05-10T04:23:48.126Z,100009.84
2023-05-10T04:26:16.615Z,100011.91
2023-05-10T04:28:46.689Z,100009.97
2023-05-10T04:31:17.719Z,100017.88
2023-05-10T04:33:46.139Z,100017.06
2023-05-10T04:36:14.522Z,100020.28
2023-05-10T04:38:43.629Z,100010.47
2023-05-10T04:41:13.355Z,100018.84
2023-05-10T04:43:44.145Z,100020.63
2023-05-10T04:46:14.488Z,100024.00
2023-05-10T04:48:42.852Z,100022.53
2023-05-10T04:51:11.252Z,100022.88
2023-05-10T04:53:39.618Z,100028.53
2023-05-10T04:56:09.905Z,100028.38
2023-05-10T04:58:39.781Z,100030.13
2023-05-10T05:01:12.156Z,100029.81
2023-05-10T05:03:40.850Z,100032.88
2023-05-10T05:06:12.326Z,100035.16
2023-05-10T05:08:41.108Z,100034.50
2023-05-10T05:11:11.844Z,100038.06
2023-05-10T05:13:41.542Z,100040.97
2023-05-10T05:16:11.888Z,100039.63
2023-05-10T05:18:40.500Z,100045.59
2023-05-10T05:21:18.001Z,100038.66
2023-05-10T05:23:47.180Z,100041.91
2023-05-10T05:26:16.026Z,100052.38
2023-05-10T05:28:45.817Z,100049.97
2023-05-10T05:31:17.966Z,100054.81
2023-05-10T05:33:46.772Z,100052.88
2023-05-10T05:36:15.041Z,100052.69
2023-05-10T05:38:45.998Z,100057.72
2023-05-10T05:41:17.411Z,100055.13
2023-05-10T05:43:47.276Z,100059.66
2023-05-10T05:46:15.910Z,100062.72
2023-05-10T05:48:44.599Z,100064.16
2023-05-10T05:51:15.333Z,100071.91
2023-05-10T05:54:16.209Z,100064.44
2023-05-10T05:58:09.196Z,100066.25
2023-05-10T06:01:23.849Z,100072.88
2023-05-10T06:04:32.222Z,100078.81
2023-05-10T06:07:07.547Z,100090.13
2023-05-10T06:09:37.959Z,100090.13
2023-05-10T06:12:06.621Z,100091.25
2023-05-10T06:15:00.722Z,100091.25
2023-05-10T06:17:30.845Z,100088.34
2023-05-10T06:19:59.152Z,100097.22
2023-05-10T06:22:27.564Z,100092.38
2023-05-10T06:24:58.705Z,100092.22
2023-05-10T06:27:27.501Z,100110.78
2023-05-10T06:30:09.191Z,100113.19
2023-05-10T06:32:42.726Z,100108.03
2023-05-10T06:35:14.404Z,100112.50
2023-05-10T06:37:42.924Z,100108.56
2023-05-10T06:40:12.031Z,100102.88
2023-05-10T06:42:40.293Z,100114.91
2023-05-10T06:45:10.234Z,100115.34
2023-05-10T06:47:39.408Z,100119.06
2023-05-10T06:50:10.294Z,100121.38
2023-05-10T06:52:41.126Z,100119.59
2023-05-10T06:55:10.576Z,100126.78
2023-05-10T06:57:38.993Z,100117.09
2023-05-10T07:00:53.193Z,100108.84
2023-05-10T07:03:27.666Z,100123.34
2023-05-10T07:06:33.032Z,100124.91
2023-05-10T07:09:14.634Z,100127.50
2023-05-10T07:11:48.634Z,100125.00
2023-05-10T07:14:26.909Z,100126.88
2023-05-10T07:17:01.230Z,100131.84
2023-05-10T07:19:30.402Z,100123.88
2023-05-10T07:22:03.397Z,100130.31
2023-05-10T07:24:34.553Z,100128.94
2023-05-10T07:27:05.456Z,100131.59
2023-05-10T07:29:39.389Z,100129.25
2023-05-10T07:32:15.433Z,100133.13
2023-05-10T07:34:47.717Z,100131.75
2023-05-10T07:37:19.178Z,100137.31
2023-05-10T07:40:04.008Z,100132.06
2023-05-10T07:42:40.915Z,100129.91
2023-05-10T07:45:11.866Z,100134.50
2023-05-10T07:47:40.441Z,100130.56
2023-05-10T07:50:09.680Z,100133.78
2023-05-10T07:52:39.898Z,100130.56
2023-05-10T07:55:10.872Z,100134.00
2023-05-10T07:57:40.436Z,100126.72
2023-05-10T08:00:14.388Z,100136.94
2023-05-10T08:02:43.739Z,100141.31
2023-05-10T08:05:12.391Z,100137.16
2023-05-10T08:07:53.399Z,100138.78
2023-05-10T08:10:24.774Z,100137.66
2023-05-10T08:12:53.506Z,100137.97
2023-05-10T08:15:22.311Z,100145.44
2023-05-10T08:17:57.454Z,100151.28
2023-05-10T08:20:26.133Z,100149.09
2023-05-10T08:22:56.185Z,100161.25
2023-05-10T08:25:26.699Z,100159.41
2023-05-10T08:28:15.112Z,100153.41
2023-05-10T08:30:43.560Z,100164.31
2023-05-10T08:33:11.889Z,100162.25
2023-05-10T08:35:42.169Z,100165.47
2023-05-10T08:38:11.968Z,100163.13
2023-05-10T08:40:43.538Z,100175.03
2023-05-10T08:43:12.770Z,100171.75
2023-05-10T08:45:42.462Z,100179.44
2023-05-10T08:48:11.464Z,100179.66
2023-05-10T08:50:41.649Z,100179.47
2023-05-10T08:53:14.481Z,100191.94
2023-05-10T08:55:44.891Z,100189.66
2023-05-10T08:58:13.277Z,100189.53
2023-05-10T09:00:42.015Z,100197.63
2023-05-10T09:03:11.362Z,100187.69
2023-05-10T09:05:39.961Z,100191.84
2023-05-10T09:08:09.068Z,100195.34
2023-05-10T09:10:39.024Z,100202.13
2023-05-10T09:13:07.667Z,100197.56
2023-05-10T09:15:36.158Z,100199.53
2023-05-10T09:18:05.006Z,100205.41
2023-05-10T09:20:33.944Z,100200.47
2023-05-10T09:23:02.318Z,100207.84
2023-05-10T09:25:31.284Z,100212.53
2023-05-10T09:28:09.314Z,100206.03
2023-05-10T09:30:38.080Z,100208.22
2023-05-10T09:33:06.543Z,100205.22
2023-05-10T09:35:35.407Z,100210.81
2023-05-10T09:38:05.260Z,100209.44
2023-05-10T09:40:33.792Z,100210.84
2023-05-10T09:43:05.431Z,100208.97
2023-05-10T09:45:38.295Z,100206.06
2023-05-10T09:48:08.135Z,100207.31
2023-05-10T09:50:36.615Z,100207.09
2023-05-10T09:53:05.375Z,100208.59
2023-05-10T09:55:40.677Z,100213.06
2023-05-10T09:58:11.861Z,100217.34
2023-05-10T10:00:41.395Z,100211.63
2023-05-10T10:03:14.206Z,100214.59
2023-05-10T10:05:46.065Z,100213.22
2023-05-10T10:08:15.207Z,100217.97
2023-05-10T10:10:46.338Z,100228.88
2023-05-10T10:13:18.122Z,100219.22
2023-05-10T10:15:52.098Z,100223.88
2023-05-10T10:18:29.637Z,100226.91
2023-05-10T10:20:58.219Z,100226.16
2023-05-10T10:23:32.302Z,100226.59
2023-05-10T10:26:01.330Z,100233.31
2023-05-10T10:28:38.050Z,100235.63
2023-05-10T10:31:16.153Z,100234.81
2023-05-10T10:33:57.898Z,100235.72
2023-05-10T10:36:28.052Z,100233.41
2023-05-10T10:39:04.717Z,100226.66
2023-05-10T10:41:49.418Z,100234.78
2023-05-10T10:44:48.314Z,100235.69
2023-05-10T10:47:36.549Z,100234.69
2023-05-10T10:50:19.557Z,100242.28
2023-05-10T10:52:58.989Z,100249.13
2023-05-10T10:55:31.652Z,100251.38
2023-05-10T10:58:39.954Z,100248.88
2023-05-10T11:01:23.402Z,100255.44
2023-05-10T11:04:08.821Z,100255.19
2023-05-10T11:06:52.034Z,100248.06
2023-05-10T11:09:42.774Z,100257.31
2023-05-10T11:12:12.377Z,100255.22
2023-05-10T11:14:41.830Z,100258.56
2023-05-10T11:17:24.626Z,100266.41
2023-05-10T11:20:08.680Z,100261.63
2023-05-10T11:25:19.091Z,100281.22
2023-05-10T11:27:49.764Z,100289.59
2023-05-10T11:33:07.478Z,100283.59
2023-05-10T11:35:41.070Z,100281.13
2023-05-10T11:38:12.470Z,100275.41
2023-05-10T11:40:42.774Z,100283.75
2023-05-10T11:43:12.178Z,100278.94
2023-05-10T11:45:42.035Z,100282.19
2023-05-10T11:48:10.551Z,100277.19
2023-05-10T11:50:38.961Z,100284.69
2023-05-10T11:53:07.153Z,100281.16
2023-05-10T11:55:35.844Z,100285.09
2023-05-10T11:58:05.943Z,100291.34
2023-05-10T12:00:34.468Z,100283.16
2023-05-10T12:03:03.088Z,100291.34
2023-05-10T12:05:33.787Z,100282.94
2023-05-10T12:08:15.121Z,100289.09
2023-05-10T12:10:43.684Z,100300.41
2023-05-10T12:13:16.454Z,100290.50
2023-05-10T12:15:45.413Z,100292.13
2023-05-10T12:18:14.475Z,100291.56
2023-05-10T12:20:43.522Z,100293.25
2023-05-10T12:23:11.754Z,100292.28
2023-05-10T12:25:40.726Z,100294.69
2023-05-10T12:28:09.888Z,100305.50
2023-05-10T12:30:40.323Z,100305.50
2023-05-10T12:33:12.371Z,100302.25
2023-05-10T12:35:47.955Z,100307.75
2023-05-10T12:38:30.816Z,100312.34
2023-05-10T12:40:59.893Z,100307.44
2023-05-10T12:43:28.352Z,100303.44
2023-05-10T12:46:01.517Z,100303.44
2023-05-10T12:48:29.850Z,100310.41
2023-05-10T12:50:58.084Z,100313.59
2023-05-10T12:53:26.756Z,100308.25
2023-05-10T12:55:55.662Z,100309.56
2023-05-10T12:58:35.127Z,100308.94
2023-05-10T13:01:07.083Z,100311.81
2023-05-10T13:03:39.258Z,100317.16
2023-05-10T13:06:08.329Z,100311.09
2023-05-10T13:08:36.581Z,100309.06
2023-05-10T13:11:05.119Z,100303.59
2023-05-10T13:13:33.418Z,100310.41
2023-05-10T13:16:01.633Z,100306.78
2023-05-10T13:18:31.345Z,100313.59
2023-05-10T13:21:03.357Z,100310.81
2023-05-10T13:23:31.644Z,100311.25
2023-05-10T13:26:00.140Z,100302.06
2023-05-10T13:28:28.806Z,100311.13
2023-05-10T13:30:57.138Z,100312.19
2023-05-10T13:33:25.538Z,100311.22
2023-05-10T13:35:55.864Z,100307.78
2023-05-10T13:38:24.216Z,100303.94
2023-05-10T13:40:53.774Z,100306.78
2023-05-10T13:43:22.191Z,100303.38
2023-05-10T13:45:50.351Z,100307.56
2023-05-10T13:48:18.574Z,100304.44
2023-05-10T13:50:47.139Z,100297.81
2023-05-10T13:53:16.823Z,100305.56
2023-05-10T13:55:45.026Z,100301.09
2023-05-10T13:58:13.229Z,100298.91
2023-05-10T14:00:41.712Z,100296.09
2023-05-10T14:03:11.987Z,100311.88
2023-05-10T14:05:40.869Z,100293.22
2023-05-10T14:08:10.351Z,100289.53
2023-05-10T14:10:40.349Z,100298.03
2023-05-10T14:13:08.911Z,100297.53
2023-05-10T14:15:38.020Z,100300.13
2023-05-10T14:18:06.809Z,100289.44
2023-05-10T14:20:36.894Z,100290.09
2023-05-10T14:23:05.359Z,100287.28
2023-05-10T14:25:35.583Z,100278.84
2023-05-10T14:28:05.400Z,100288.47
2023-05-10T14:30:48.779Z,100293.69
2023-05-10T14:33:18.550Z,100289.13
2023-05-10T14:35:47.644Z,100287.94
2023-05-10T14:38:15.860Z,100292.47
2023-05-10T14:40:46.645Z,100286.38
2023-05-10T14:43:16.338Z,100287.41
2023-05-10T14:45:45.914Z,100293.72
2023-05-10T14:48:22.119Z,100289.59
2023-05-10T14:50:54.112Z,100297.88
2023-05-10T14:53:22.436Z,100298.25
2023-05-10T14:55:51.152Z,100292.44
2023-05-10T14:58:20.904Z,100289.19
2023-05-10T15:00:49.641Z,100299.13
2023-05-10T15:03:19.351Z,100290.72
2023-05-10T15:05:48.409Z,100298.72
2023-05-10T15:08:16.600Z,100292.91
2023-05-10T15:10:44.882Z,100301.34
2023-05-10T15:13:13.143Z,100306.50
2023-05-10T15:15:43.440Z,100302.81
2023-05-10T15:18:12.094Z,100299.63
2023-05-10T15:20:40.408Z,100307.31
2023-05-10T15:23:08.701Z,100301.25
2023-05-10T15:25:38.127Z,100305.50
2023-05-10T15:28:06.394Z,100303.22
2023-05-10T15:30:34.754Z,100305.94
2023-05-10T15:33:04.525Z,100301.56
2023-05-10T15:35:33.227Z,100308.41
2023-05-10T15:38:02.983Z,100307.22
2023-05-10T15:40:31.288Z,100301.59
2023-05-10T15:42:59.508Z,100306.75
2023-05-10T15:45:28.424Z,100313.53
2023-05-10T15:47:56.779Z,100311.34
2023-05-10T15:50:26.796Z,100311.72
2023-05-10T15:52:55.215Z,100320.66
2023-05-10T15:55:24.064Z,100324.44
2023-05-10T15:57:54.397Z,100321.41
2023-05-10T16:00:23.072Z,100317.44
2023-05-10T16:02:53.222Z,100325.41
2023-05-10T16:05:22.142Z,100326.19
2023-05-10T16:07:52.165Z,100331.75
2023-05-10T16:10:21.242Z,100329.28
2023-05-10T16:12:49.972Z,100334.66
2023-05-10T16:15:19.064Z,100332.41
2023-05-10T16:17:47.730Z,100339.47
2023-05-10T16:20:16.247Z,100330.00
2023-05-10T16:22:44.998Z,100333.75
2023-05-10T16:25:17.916Z,100334.59
2023-05-10T16:27:51.065Z,100336.81
2023-05-10T16:30:20.861Z,100333.41
2023-05-10T16:32:51.415Z,100341.22
2023-05-10T16:35:19.916Z,100346.66
2023-05-10T16:37:48.309Z,100345.94
2023-05-10T16:40:18.759Z,100348.09
2023-05-10T16:42:47.093Z,100344.69
2023-05-10T16:45:17.329Z,100347.81
2023-05-10T16:47:48.496Z,100354.16
2023-05-10T16:50:24.273Z,100352.72
2023-05-10T16:52:53.217Z,100357.25
2023-05-10T16:55:25.530Z,100362.09
2023-05-10T16:57:59.682Z,100357.00
2023-05-10T17:00:29.939Z,100354.50
2023-05-10T17:02:58.597Z,100365.88
2023-05-10T17:05:31.070Z,100363.84
2023-05-10T17:07:59.497Z,100363.22
2023-05-10T17:10:30.460Z,100365.31
2023-05-10T17:12:58.724Z,100371.34
2023-05-10T17:15:27.074Z,100363.28
2023-05-10T17:17:55.483Z,100369.31
2023-05-10T17:20:23.736Z,100373.91
2023-05-10T17:22:52.191Z,100374.38
2023-05-10T17:25:20.692Z,100387.50
2023-05-10T17:27:53.652Z,100377.06
2023-05-10T17:30:26.252Z,100383.97
2023-05-10T17:32:55.117Z,100392.06
2023-05-10T17:35:24.372Z,100392.50
2023-05-10T17:37:53.229Z,100397.09
2023-05-10T17:40:28.759Z,100408.03
2023-05-10T17:42:58.507Z,100395.84
2023-05-10T17:45:27.246Z,100417.09
2023-05-10T17:47:56.147Z,100411.19
2023-05-10T17:50:24.601Z,100423.56
2023-05-10T17:52:53.016Z,100423.13
2023-05-10T17:55:22.391Z,100424.47
2023-05-10T17:57:51.926Z,100425.53
2023-05-10T18:00:22.203Z,100429.75
2023-05-10T18:02:50.797Z,100422.91
2023-05-10T18:05:20.286Z,100426.75
2023-05-10T18:07:48.909Z,100432.53
2023-05-10T18:10:21.580Z,100430.66
2023-05-10T18:12:50.521Z,100431.34
2023-05-10T18:15:18.939Z,100431.78
2023-05-10T18:17:54.256Z,100436.53
2023-05-10T18:20:22.630Z,100440.78
2023-05-10T18:22:59.351Z,100438.53
2023-05-10T18:25:30.376Z,100443.25
2023-05-10T18:27:58.700Z,100448.28
2023-05-10T18:30:26.903Z,100436.28
2023-05-10T18:32:57.525Z,100436.28
2023-05-10T18:35:44.618Z,100434.72
2023-05-10T18:38:13.532Z,100444.56
2023-05-10T18:40:42.032Z,100440.19
2023-05-10T18:43:13.901Z,100438.88
2023-05-10T18:45:44.968Z,100447.13
2023-05-10T18:48:15.251Z,100455.06
2023-05-10T18:50:43.496Z,100451.03
2023-05-10T18:53:12.222Z,100458.63
2023-05-10T18:55:40.668Z,100455.06
2023-05-10T18:58:09.211Z,100459.41
2023-05-10T19:00:38.116Z,100463.63
2023-05-10T19:03:06.630Z,100460.56
2023-05-10T19:05:36.647Z,100467.84
2023-05-10T19:08:05.487Z,100473.03
2023-05-10T19:10:33.831Z,100471.56
2023-05-10T19:13:02.064Z,100469.78
2023-05-10T19:15:30.327Z,100479.97
2023-05-10T19:17:58.975Z,100475.59
2023-05-10T19:20:29.188Z,100483.69
2023-05-10T19:23:09.807Z,100488.50
2023-05-10T19:25:39.387Z,100490.94
2023-05-10T19:28:09.005Z,100493.84
2023-05-10T19:30:38.058Z,100489.78
2023-05-10T19:33:06.452Z,100495.94
2023-05-10T19:35:34.974Z,100502.22
2023-05-10T19:38:04.711Z,100498.97
2023-05-10T19:40:33.056Z,100499.63
2023-05-10T19:43:01.641Z,100500.59
2023-05-10T19:45:29.987Z,100507.38
2023-05-10T19:47:58.474Z,100513.50
2023-05-10T19:50:27.152Z,100504.13
2023-05-10T19:52:55.515Z,100510.25
2023-05-10T19:55:28.807Z,100506.38
2023-05-10T19:57:57.095Z,100503.50
2023-05-10T20:00:27.285Z,100502.50
2023-05-10T20:02:56.041Z,100511.72
2023-05-10T20:05:24.461Z,100518.34
2023-05-10T20:07:52.712Z,100510.25
2023-05-10T20:10:21.540Z,100513.13
2023-05-10T20:12:52.284Z,100513.75
2023-05-10T20:15:21.458Z,100506.16
2023-05-10T20:17:50.969Z,100503.56
2023-05-10T20:20:20.285Z,100499.19
2023-05-10T20:22:48.739Z,100509.69
2023-05-10T20:25:17.255Z,100499.81
2023-05-10T20:27:45.585Z,100499.31
2023-05-10T20:30:15.595Z,100502.19
2023-05-10T20:32:44.894Z,100496.25
2023-05-10T20:35:13.146Z,100498.63
2023-05-10T20:37:42.160Z,100507.50
2023-05-10T20:40:11.513Z,100511.69
2023-05-10T20:42:49.811Z,100510.38
2023-05-10T20:45:21.002Z,100511.81
2023-05-10T20:47:50.125Z,100506.13
2023-05-10T20:50:18.936Z,100512.75
2023-05-10T20:52:54.355Z,100501.28
2023-05-10T20:55:23.157Z,100514.38
2023-05-10T20:58:09.334Z,100517.75
2023-05-10T21:00:41.083Z,100511.25
2023-05-10T21:03:13.642Z,100512.06
2023-05-10T21:05:51.373Z,100515.13
2023-05-10T21:08:25.291Z,100500.94
2023-05-10T21:11:09.177Z,100504.00
2023-05-10T21:13:44.993Z,100519.66
2023-05-10T21:16:18.892Z,100512.72
2023-05-10T21:18:48.265Z,100515.78
2023-05-10T21:21:17.650Z,100520.63
2023-05-10T21:23:46.882Z,100514.50
2023-05-10T21:26:18.184Z,100513.56
2023-05-10T21:28:46.975Z,100514.56
2023-05-10T21:31:16.887Z,100515.06
2023-05-10T21:33:45.780Z,100512.94
2023-05-10T21:36:16.811Z,100517.00
2023-05-10T21:38:45.246Z,100520.34
2023-05-10T21:41:13.414Z,100522.41
2023-05-10T21:43:41.597Z,100517.75
2023-05-10T21:46:09.888Z,100518.56
2023-05-10T21:48:39.403Z,100520.00
2023-05-10T21:51:07.824Z,100523.22
2023-05-10T21:53:42.376Z,100527.91
2023-05-10T21:56:12.042Z,100518.88
2023-05-10T21:58:40.214Z,100517.56
2023-05-10T22:01:08.577Z,100519.03
2023-05-10T22:03:36.898Z,100526.59
2023-05-10T22:06:07.179Z,100517.88
2023-05-10T22:08:35.461Z,100524.66
2023-05-10T22:11:04.048Z,100523.84
2023-05-10T22:13:32.281Z,100526.28
2023-05-10T22:16:00.736Z,100520.00
2023-05-10T22:18:29.086Z,100520.63
2023-05-10T22:20:57.289Z,100526.59
2023-05-10T22:23:26.925Z,100526.09
2023-05-10T22:25:55.345Z,100523.03
2023-05-10T22:28:24.089Z,100526.09
2023-05-10T22:30:52.863Z,100528.38
2023-05-10T22:33:22.242Z,100524.97
2023-05-10T22:35:51.194Z,100535.66
2023-05-10T22:38:19.443Z,100537.13
2023-05-10T22:40:49.599Z,100539.56
2023-05-10T22:43:18.080Z,100532.34
2023-05-10T22:45:46.363Z,100531.34
2023-05-10T22:48:15.502Z,100531.84
2023-05-10T22:50:43.746Z,100531.53
2023-05-10T22:53:12.000Z,100540.25
2023-05-10T22:55:40.393Z,100537.56
2023-05-10T22:58:10.279Z,100539.81
2023-05-10T23:00:38.850Z,100533.81
2023-05-10T23:03:07.450Z,100542.56
2023-05-10T23:05:35.809Z,100542.38
2023-05-10T23:08:04.002Z,100540.75
2023-05-10T23:10:32.530Z,100534.56
2023-05-10T23:13:00.734Z,100534.41
2023-05-10T23:15:33.044Z,100540.38
2023-05-10T23:18:01.497Z,100532.59
2023-05-10T23:20:29.793Z,100547.81
2023-05-10T23:22:58.344Z,100532.97
2023-05-10T23:25:26.966Z,100531.16
2023-05-10T23:27:55.210Z,100543.56
2023-05-10T23:30:23.468Z,100525.47
2023-05-10T23:32:53.043Z,100538.53
2023-05-10T23:35:21.268Z,100536.59
2023-05-10T23:37:49.609Z,100536.94
2023-05-10T23:40:18.063Z,100535.00
2023-05-10T23:42:46.435Z,100539.47
2023-05-10T23:45:14.607Z,100534.19
2023-05-10T23:47:42.800Z,100529.63
2023-05-10T23:50:12.699Z,100528.44
2023-05-10T23:52:41.205Z,100525.50
2023-05-10T23:55:09.918Z,100527.63
2023-05-10T23:57:39.186Z,100528.75
